Time;durP1;ratioP1;P1;durP2;ratioP2;P2;SDS_P1;SDS_P2;PMS_P1;PMS_P2;Temp;Humidity;BMP_temperature;BMP_pressure;BME280_temperature;BME280_humidity;BME280_pressure;Samples;Min_cycle;Max_cycle;Signal;HPM_P1;HPM_P2
2020/12/30 00:02:26;;;;;;;8.85;5.75;;;;;9.70;99396.00;;;;5060876;28;20293;-78
2020/12/30 00:04:53;;;;;;;14.55;6.72;;;;;9.70;99396.00;;;;5055441;28;20208;-79
2020/12/30 00:07:19;;;;;;;9.85;6.05;;;;;9.70;99386.00;;;;5059787;28;20199;-78
2020/12/30 00:09:47;;;;;;;9.85;6.60;;;;;9.60;99399.00;;;;5063116;28;20219;-78
2020/12/30 00:12:15;;;;;;;8.68;5.85;;;;;9.60;99396.00;;;;5068131;28;20687;-79
2020/12/30 00:14:42;;;;;;;10.75;5.88;;;;;9.60;99389.00;;;;5057592;28;20209;-78
2020/12/30 00:17:09;;;;;;;10.93;5.97;;;;;9.50;99395.00;;;;5048423;28;20630;-78
2020/12/30 00:19:36;;;;;;;10.65;5.70;;;;;9.50;99400.00;;;;5067761;28;20199;-78
2020/12/30 00:22:04;;;;;;;8.82;6.03;;;;;9.50;99403.00;;;;5065139;28;20205;-79
2020/12/30 00:24:31;;;;;;;10.20;5.35;;;;;9.50;99396.00;;;;5060422;28;20211;-78
2020/12/30 00:26:58;;;;;;;9.60;6.10;;;;;9.40;99399.00;;;;5053962;28;20204;-78
2020/12/30 00:29:26;;;;;;;11.15;5.70;;;;;9.40;99395.00;;;;5048139;28;20196;-78
2020/12/30 00:31:52;;;;;;;9.35;5.88;;;;;9.40;99386.00;;;;5062872;28;20199;-78
2020/12/30 00:34:19;;;;;;;8.27;5.25;;;;;9.40;99389.00;;;;5069024;28;20206;-78
2020/12/30 00:36:46;;;;;;;8.80;4.93;;;;;9.40;99396.00;;;;5068150;28;20206;-78
2020/12/30 00:39:12;;;;;;;9.40;5.38;;;;;9.30;99400.00;;;;5067687;28;20202;-78
2020/12/30 00:41:39;;;;;;;6.57;3.60;;;;;9.30;99403.00;;;;5057307;28;20592;-79
2020/12/30 00:44:06;;;;;;;7.05;4.57;;;;;9.30;99393.00;;;;5064138;28;20199;-78
2020/12/30 00:46:34;;;;;;;6.03;4.10;;;;;9.30;99397.00;;;;5066284;28;20265;-78
2020/12/30 00:49:01;;;;;;;9.45;4.60;;;;;9.30;99399.00;;;;5066436;28;20259;-79
2020/12/30 00:51:27;;;;;;;6.03;3.75;;;;;9.20;99403.00;;;;5060198;28;20202;-78
2020/12/30 00:53:54;;;;;;;4.43;3.10;;;;;9.20;99405.00;;;;5067196;28;20241;-79
2020/12/30 00:56:21;;;;;;;4.38;2.80;;;;;9.20;99405.00;;;;5057437;28;20199;-78
2020/12/30 00:58:48;;;;;;;6.75;3.80;;;;;9.20;99405.00;;;;5048257;28;20235;-78
2020/12/30 01:01:15;;;;;;;5.00;2.95;;;;;9.10;99407.00;;;;5053070;28;20192;-78
2020/12/30 01:03:42;;;;;;;5.90;3.60;;;;;9.10;99406.00;;;;5068328;28;20199;-78
2020/12/30 01:06:11;;;;;;;4.47;2.97;;;;;9.10;99417.00;;;;5067992;28;20202;-78
2020/12/30 01:08:38;;;;;;;4.63;3.05;;;;;9.20;99414.00;;;;5067274;28;20381;-78
2020/12/30 01:11:05;;;;;;;5.50;2.75;;;;;9.20;99419.00;;;;5065037;28;20583;-78
2020/12/30 01:13:32;;;;;;;4.43;2.90;;;;;9.20;99422.00;;;;5060518;28;20261;-79
2020/12/30 01:15:59;;;;;;;3.70;2.58;;;;;9.20;99427.00;;;;5047689;28;20199;-79
2020/12/30 01:18:25;;;;;;;6.63;2.85;;;;;9.30;99427.00;;;;5055407;28;20195;-78
2020/12/30 01:21:01;;;;;;;3.97;2.40;;;;;9.20;99419.00;;;;5054013;28;20229;-79
2020/12/30 01:23:28;;;;;;;5.40;2.67;;;;;9.30;99434.00;;;;5067177;28;20578;-79
2020/12/30 01:25:55;;;;;;;5.47;2.45;;;;;9.30;99438.00;;;;5055296;28;20195;-78
2020/12/30 01:28:22;;;;;;;3.47;2.65;;;;;9.30;99433.00;;;;5052125;28;20210;-79
2020/12/30 01:30:49;;;;;;;5.18;2.88;;;;;9.30;99440.00;;;;5058041;28;20257;-79
2020/12/30 01:33:16;;;;;;;4.03;2.58;;;;;9.30;99429.00;;;;5051605;28;20269;-78
2020/12/30 01:35:42;;;;;;;3.78;2.42;;;;;9.30;99433.00;;;;5056603;28;20199;-78
2020/12/30 01:38:10;;;;;;;4.68;2.75;;;;;9.30;99442.00;;;;5054231;28;20202;-78
2020/12/30 01:40:37;;;;;;;3.80;2.40;;;;;9.30;99443.00;;;;5060631;28;20269;-79
2020/12/30 01:43:03;;;;;;;4.68;2.72;;;;;9.30;99442.00;;;;5049080;28;20200;-78
2020/12/30 01:45:30;;;;;;;4.22;2.95;;;;;9.30;99442.00;;;;5058756;28;20207;-78
2020/12/30 01:47:57;;;;;;;5.40;3.13;;;;;9.30;99446.00;;;;5063974;28;20958;-78
2020/12/30 01:50:24;;;;;;;5.43;3.58;;;;;9.30;99444.00;;;;5064798;28;20202;-78
2020/12/30 01:52:52;;;;;;;5.13;3.03;;;;;9.30;99448.00;;;;5053665;28;20268;-78
2020/12/30 01:55:23;;;;;;;5.78;3.20;;;;;9.30;99445.00;;;;5057619;28;20200;-78
2020/12/30 01:57:50;;;;;;;5.40;3.78;;;;;9.30;99454.00;;;;5050974;28;20245;-78
2020/12/30 02:00:17;;;;;;;6.82;4.20;;;;;9.30;99454.00;;;;5057769;28;20200;-78
2020/12/30 02:02:47;;;;;;;5.57;4.18;;;;;9.30;99452.00;;;;5057469;28;20616;-78
2020/12/30 02:05:18;;;;;;;6.88;3.95;;;;;9.30;99463.00;;;;5068030;28;20191;-78
2020/12/30 02:07:45;;;;;;;7.60;3.95;;;;;9.30;99462.00;;;;5066741;28;20199;-78
2020/12/30 02:10:12;;;;;;;6.72;4.13;;;;;9.30;99461.00;;;;5068663;28;20207;-79
2020/12/30 02:12:41;;;;;;;4.78;3.47;;;;;9.30;99471.00;;;;5070373;28;20280;-78
2020/12/30 02:15:07;;;;;;;7.00;4.22;;;;;9.30;99467.00;;;;5070341;28;20221;-79
2020/12/30 02:17:34;;;;;;;5.55;3.33;;;;;9.30;99470.00;;;;5061222;28;20444;-79
2020/12/30 02:20:01;;;;;;;5.93;3.45;;;;;9.30;99472.00;;;;5050899;28;20192;-78
2020/12/30 02:22:30;;;;;;;5.82;3.90;;;;;9.20;99472.00;;;;5058778;28;20203;-79
2020/12/30 02:24:58;;;;;;;8.07;3.65;;;;;9.20;99471.00;;;;5069338;28;20244;-79
2020/12/30 02:27:24;;;;;;;5.53;3.97;;;;;9.20;99475.00;;;;5050998;28;20218;-79
2020/12/30 02:29:51;;;;;;;5.63;3.88;;;;;9.20;99472.00;;;;5050559;28;20192;-79
2020/12/30 02:32:18;;;;;;;5.57;3.78;;;;;9.20;99476.00;;;;5053163;28;20210;-79
2020/12/30 02:34:44;;;;;;;6.35;3.55;;;;;9.20;99479.00;;;;5060370;28;20613;-79
2020/12/30 02:37:11;;;;;;;5.95;3.55;;;;;9.20;99478.00;;;;5051329;28;20187;-79
2020/12/30 02:39:38;;;;;;;7.68;3.88;;;;;9.20;99476.00;;;;5067183;28;20246;-78
2020/12/30 02:42:05;;;;;;;6.47;3.70;;;;;9.20;99468.00;;;;5051800;28;20204;-79
2020/12/30 02:44:32;;;;;;;5.35;3.15;;;;;9.20;99472.00;;;;5067709;28;20210;-79
2020/12/30 02:46:59;;;;;;;5.10;3.13;;;;;9.20;99468.00;;;;5049566;28;20199;-78
2020/12/30 02:49:25;;;;;;;5.38;3.75;;;;;9.20;99468.00;;;;5063197;28;20195;-78
2020/12/30 02:51:52;;;;;;;4.55;3.25;;;;;9.10;99478.00;;;;5050214;28;20564;-79
2020/12/30 02:54:19;;;;;;;7.07;4.43;;;;;9.20;99472.00;;;;5066064;28;20222;-78
2020/12/30 02:56:46;;;;;;;5.65;3.75;;;;;9.10;99472.00;;;;5058981;28;20641;-79
2020/12/30 02:59:13;;;;;;;6.15;4.07;;;;;9.10;99479.00;;;;5061522;28;20226;-79
2020/12/30 03:01:43;;;;;;;7.68;4.28;;;;;9.00;99479.00;;;;5062689;28;20195;-79
2020/12/30 03:04:10;;;;;;;6.40;3.92;;;;;9.10;99482.00;;;;5066952;28;20286;-79
2020/12/30 03:06:37;;;;;;;6.60;3.78;;;;;9.00;99480.00;;;;5070010;28;20248;-78
2020/12/30 03:09:04;;;;;;;6.75;4.20;;;;;9.00;99480.00;;;;5058269;28;20201;-79
2020/12/30 03:11:30;;;;;;;5.85;3.95;;;;;9.00;99479.00;;;;5050365;28;20214;-79
2020/12/30 03:13:57;;;;;;;6.85;4.38;;;;;9.00;99479.00;;;;5068176;28;20230;-78
2020/12/30 03:16:25;;;;;;;7.22;3.83;;;;;8.90;99477.00;;;;5056529;28;20619;-78
2020/12/30 03:18:51;;;;;;;6.53;4.63;;;;;8.90;99471.00;;;;5061260;28;20206;-79
2020/12/30 03:21:18;;;;;;;7.78;5.20;;;;;8.90;99473.00;;;;5049607;28;20621;-79
2020/12/30 03:23:45;;;;;;;7.28;4.25;;;;;8.90;99471.00;;;;5049709;28;20196;-78
2020/12/30 03:26:12;;;;;;;8.70;4.47;;;;;8.80;99482.00;;;;5066160;28;20253;-78
2020/12/30 03:28:38;;;;;;;6.93;4.57;;;;;8.80;99489.00;;;;5068985;28;20249;-79
2020/12/30 03:31:05;;;;;;;6.93;4.65;;;;;8.80;99489.00;;;;5068217;28;20625;-79
2020/12/30 03:33:33;;;;;;;8.93;4.35;;;;;8.80;99490.00;;;;5059133;28;20222;-78
2020/12/30 03:35:59;;;;;;;9.60;4.63;;;;;8.70;99487.00;;;;5054641;28;20606;-78
2020/12/30 03:38:26;;;;;;;8.15;5.00;;;;;8.70;99481.00;;;;5065768;28;20742;-79
2020/12/30 03:40:53;;;;;;;7.35;4.50;;;;;8.70;99491.00;;;;5056641;28;20249;-79
2020/12/30 03:43:20;;;;;;;7.13;4.78;;;;;8.70;99479.00;;;;5052679;28;20268;-78
2020/12/30 03:45:46;;;;;;;8.30;5.05;;;;;8.70;99480.00;;;;5055894;28;20192;-79
2020/12/30 03:48:13;;;;;;;7.90;4.53;;;;;8.60;99489.00;;;;5063286;28;20199;-78
2020/12/30 03:50:41;;;;;;;7.18;4.50;;;;;8.60;99484.00;;;;5065507;28;20724;-79
2020/12/30 03:53:07;;;;;;;8.18;5.07;;;;;8.60;99489.00;;;;5066885;28;20313;-79
2020/12/30 03:55:34;;;;;;;8.40;5.18;;;;;8.60;99484.00;;;;5059285;28;20198;-79
2020/12/30 03:58:01;;;;;;;8.25;4.30;;;;;8.60;99488.00;;;;5067519;28;20199;-78
2020/12/30 04:00:27;;;;;;;8.68;4.60;;;;;8.50;99492.00;;;;5059898;28;20292;-79
2020/12/30 04:02:54;;;;;;;8.05;4.60;;;;;8.50;99489.00;;;;5065357;28;20425;-79
2020/12/30 04:05:21;;;;;;;7.95;5.07;;;;;8.50;99491.00;;;;5060563;28;20191;-78
2020/12/30 04:07:49;;;;;;;8.35;5.03;;;;;8.50;99497.00;;;;5062678;28;20199;-78
2020/12/30 04:10:16;;;;;;;6.35;3.88;;;;;8.50;99497.00;;;;5062356;28;20262;-79
2020/12/30 04:12:43;;;;;;;6.90;4.68;;;;;8.40;99489.00;;;;5048758;28;20219;-79
2020/12/30 04:15:09;;;;;;;6.95;4.47;;;;;8.40;99496.00;;;;5057870;28;20195;-78
2020/12/30 04:17:36;;;;;;;7.40;4.50;;;;;8.40;99498.00;;;;5066218;28;20210;-78
2020/12/30 04:20:04;;;;;;;9.05;4.80;;;;;8.40;99485.00;;;;5069078;28;20195;-78
2020/12/30 04:22:30;;;;;;;8.95;4.85;;;;;8.40;99491.00;;;;5062931;28;20218;-78
2020/12/30 04:24:58;;;;;;;7.78;5.00;;;;;8.40;99498.00;;;;5056209;28;20203;-79
2020/12/30 04:27:25;;;;;;;9.32;5.28;;;;;8.40;99495.00;;;;5066605;28;20202;-79
2020/12/30 04:29:51;;;;;;;10.32;5.25;;;;;8.40;99502.00;;;;5057904;28;20656;-79
2020/12/30 04:32:18;;;;;;;7.80;4.75;;;;;8.40;99509.00;;;;5051971;28;20195;-79
2020/12/30 04:34:45;;;;;;;14.23;5.50;;;;;8.50;99516.00;;;;5065990;28;20657;-78
2020/12/30 04:37:13;;;;;;;8.70;5.00;;;;;8.50;99516.00;;;;5062670;28;20214;-78
2020/12/30 04:39:39;;;;;;;7.80;4.32;;;;;8.50;99522.00;;;;5067408;28;20202;-79
2020/12/30 04:42:09;;;;;;;8.07;4.70;;;;;8.50;99520.00;;;;5050103;28;20738;-79
2020/12/30 04:44:40;;;;;;;7.57;4.45;;;;;8.50;99522.00;;;;5067516;28;20203;-79
2020/12/30 04:47:07;;;;;;;8.57;4.72;;;;;8.60;99515.00;;;;5067381;28;20653;-78
2020/12/30 04:49:34;;;;;;;8.02;5.00;;;;;8.60;99522.00;;;;5059107;28;20611;-78
2020/12/30 04:52:01;;;;;;;9.40;5.22;;;;;8.60;99527.00;;;;5048131;28;20192;-78
2020/12/30 04:54:27;;;;;;;11.07;5.63;;;;;8.70;99529.00;;;;5056500;28;20325;-79
2020/12/30 04:56:58;;;;;;;8.27;5.18;;;;;8.70;99528.00;;;;5050709;28;20199;-78
2020/12/30 04:59:32;;;;;;;11.85;5.55;;;;;8.70;99525.00;;;;5056339;28;20272;-79
2020/12/30 05:02:07;;;;;;;9.50;5.00;;;;;8.70;99533.00;;;;5066498;28;20313;-78
2020/12/30 05:04:34;;;;;;;10.18;5.63;;;;;8.80;99533.00;;;;5065470;28;20631;-79
2020/12/30 05:07:07;;;;;;;8.82;5.43;;;;;8.80;99533.00;;;;5054974;28;20202;-79
2020/12/30 05:09:35;;;;;;;8.90;5.07;;;;;8.90;99534.00;;;;5056979;28;20204;-78
2020/12/30 05:12:08;;;;;;;6.68;4.57;;;;;8.90;99544.00;;;;5047952;28;20214;-79
2020/12/30 05:14:36;;;;;;;9.40;5.55;;;;;8.90;99534.00;;;;5048000;28;20226;-79
2020/12/30 05:17:04;;;;;;;7.97;4.90;;;;;8.90;99541.00;;;;5063460;28;20319;-78
2020/12/30 05:19:31;;;;;;;7.70;5.03;;;;;8.90;99535.00;;;;5056548;28;20195;-78
2020/12/30 05:21:58;;;;;;;8.80;4.95;;;;;8.90;99540.00;;;;5067174;28;20210;-79
2020/12/30 05:24:26;;;;;;;9.00;5.75;;;;;8.90;99542.00;;;;5058480;28;20211;-79
2020/12/30 05:26:54;;;;;;;6.97;4.72;;;;;8.90;99546.00;;;;5067294;28;20191;-79
2020/12/30 05:29:22;;;;;;;8.45;5.07;;;;;8.90;99544.00;;;;5063272;28;20187;-79
2020/12/30 05:31:53;;;;;;;8.45;4.97;;;;;8.90;99548.00;;;;5070691;28;20207;-79
2020/12/30 05:34:20;;;;;;;8.45;5.47;;;;;9.00;99549.00;;;;5061929;28;20272;-78
2020/12/30 05:36:48;;;;;;;6.22;4.40;;;;;9.00;99549.00;;;;5070753;28;20766;-79
2020/12/30 05:39:31;;;;;;;7.88;4.90;;;;;9.00;99554.00;;;;5070837;28;20206;-79
2020/12/30 05:42:14;;;;;;;8.15;4.80;;;;;9.00;99554.00;;;;5055197;28;20199;-79
2020/12/30 05:44:42;;;;;;;7.13;5.30;;;;;9.10;99554.00;;;;5062350;28;20206;-78
2020/12/30 05:47:15;;;;;;;8.32;5.32;;;;;9.10;99555.00;;;;5071460;28;20535;-79
2020/12/30 05:49:42;;;;;;;9.13;5.93;;;;;9.10;99560.00;;;;5067065;28;20667;-79
2020/12/30 05:52:13;;;;;;;7.88;5.57;;;;;9.20;99566.00;;;;5071963;28;20628;-79
2020/12/30 05:54:45;;;;;;;8.65;5.60;;;;;9.20;99564.00;;;;5060074;28;20521;-79
2020/12/30 05:57:26;;;;;;;8.90;5.55;;;;;9.20;99557.00;;;;5051934;28;20207;-79
2020/12/30 05:59:54;;;;;;;11.45;5.85;;;;;9.30;99569.00;;;;5060459;28;20248;-79
2020/12/30 06:02:30;;;;;;;15.55;6.22;;;;;9.30;99569.00;;;;5060944;28;20657;-78
2020/12/30 06:05:10;;;;;;;9.50;5.82;;;;;9.30;99575.00;;;;5066315;28;20265;-78
2020/12/30 06:07:41;;;;;;;11.13;5.35;;;;;9.30;99563.00;;;;5051866;28;20203;-79
2020/12/30 06:10:10;;;;;;;7.57;5.18;;;;;9.30;99564.00;;;;5052004;28;20219;-79
2020/12/30 06:12:48;;;;;;;8.57;5.43;;;;;9.30;99566.00;;;;5057914;28;20210;-79
2020/12/30 06:15:17;;;;;;;6.93;4.72;;;;;9.40;99571.00;;;;5051750;28;20261;-79
2020/12/30 06:17:56;;;;;;;9.98;5.28;;;;;9.30;99580.00;;;;5055123;28;20199;-79
2020/12/30 06:20:25;;;;;;;9.25;5.80;;;;;9.30;99584.00;;;;5068677;28;20233;-79
2020/12/30 06:22:55;;;;;;;9.77;5.18;;;;;9.30;99575.00;;;;5067124;28;20190;-78
2020/12/30 06:25:23;;;;;;;7.00;5.07;;;;;9.30;99584.00;;;;5058972;28;20242;-79
2020/12/30 06:27:51;;;;;;;9.40;6.10;;;;;9.30;99583.00;;;;5057313;28;20290;-79
2020/12/30 06:30:18;;;;;;;7.72;5.07;;;;;9.30;99584.00;;;;5056120;28;20569;-78
2020/12/30 06:32:46;;;;;;;9.18;5.82;;;;;9.30;99589.00;;;;5064966;28;20199;-79
2020/12/30 06:35:13;;;;;;;9.05;6.28;;;;;9.30;99591.00;;;;5067232;28;20238;-78
2020/12/30 06:37:41;;;;;;;8.57;5.90;;;;;9.40;99594.00;;;;5067923;28;20616;-78
2020/12/30 06:40:35;;;;;;;8.15;5.32;;;;;9.30;99605.00;;;;5062004;28;20669;-78
2020/12/30 06:43:03;;;;;;;9.18;5.68;;;;;9.40;99600.00;;;;5027614;28;20232;-78
2020/12/30 06:45:52;;;;;;;8.20;4.88;;;;;9.30;99599.00;;;;5059930;28;21728;-78
2020/12/30 06:48:21;;;;;;;5.68;4.40;;;;;9.40;99609.00;;;;5058319;28;20214;-78
2020/12/30 06:50:49;;;;;;;6.70;4.70;;;;;9.40;99609.00;;;;5058818;28;20203;-78
2020/12/30 06:53:30;;;;;;;8.95;5.15;;;;;9.40;99613.00;;;;5056070;28;20219;-78
2020/12/30 06:55:58;;;;;;;8.95;4.68;;;;;9.50;99612.00;;;;5058874;28;20246;-79
2020/12/30 06:58:45;;;;;;;7.78;5.10;;;;;9.40;99620.00;;;;5060403;28;20222;-78
2020/12/30 07:01:12;;;;;;;7.28;4.78;;;;;9.50;99620.00;;;;5059470;28;20218;-79
2020/12/30 07:03:40;;;;;;;8.18;5.57;;;;;9.60;99618.00;;;;5066298;28;20245;-79
2020/12/30 07:06:30;;;;;;;6.82;4.80;;;;;9.50;99625.00;;;;5067486;28;20211;-79
2020/12/30 07:08:58;;;;;;;6.90;5.28;;;;;9.60;99627.00;;;;5066105;28;20532;-79
2020/12/30 07:11:43;;;;;;;7.18;4.65;;;;;9.60;99633.00;;;;5069299;28;20237;-77
2020/12/30 07:14:11;;;;;;;6.28;4.25;;;;;9.70;99637.00;;;;5053411;28;20703;-77
2020/12/30 07:16:39;;;;;;;5.38;3.70;;;;;9.80;99639.00;;;;5065748;28;20203;-78
2020/12/30 07:19:15;;;;;;;4.90;3.50;;;;;9.80;99641.00;;;;5062009;28;20212;-77
2020/12/30 07:21:59;;;;;;;6.28;4.20;;;;;9.80;99645.00;;;;5066136;28;20203;-78
2020/12/30 07:24:29;;;;;;;8.30;4.20;;;;;9.90;99641.00;;;;5069363;28;20199;-77
2020/12/30 07:26:58;;;;;;;5.10;3.85;;;;;9.90;99650.00;;;;5063760;28;20195;-77
2020/12/30 07:29:25;;;;;;;5.90;3.72;;;;;9.90;99654.00;;;;5067368;28;20203;-77
2020/12/30 07:31:55;;;;;;;5.93;3.72;;;;;10.00;99654.00;;;;5066486;28;20610;-76
2020/12/30 07:34:25;;;;;;;5.50;3.63;;;;;10.00;99655.00;;;;5065423;28;20226;-77
2020/12/30 07:36:52;;;;;;;5.65;3.22;;;;;10.10;99666.00;;;;5057747;28;20234;-77
2020/12/30 07:39:26;;;;;;;6.43;4.07;;;;;10.10;99667.00;;;;5054970;28;20210;-77
2020/12/30 07:41:53;;;;;;;6.63;3.80;;;;;10.10;99664.00;;;;5064708;28;20202;-77
2020/12/30 07:44:20;;;;;;;5.75;3.75;;;;;10.20;99667.00;;;;5067202;28;20695;-77
2020/12/30 07:46:47;;;;;;;6.35;3.63;;;;;10.20;99676.00;;;;5057379;28;20203;-77
2020/12/30 07:49:16;;;;;;;7.07;3.53;;;;;10.20;99679.00;;;;5056763;28;20620;-78
2020/12/30 07:51:48;;;;;;;7.00;3.90;;;;;10.20;99682.00;;;;5058003;28;20195;-76
2020/12/30 07:54:16;;;;;;;5.93;3.88;;;;;10.30;99687.00;;;;5069041;28;20249;-77
2020/12/30 07:56:43;;;;;;;5.28;3.60;;;;;10.40;99688.00;;;;5055685;28;20298;-77
2020/12/30 07:59:10;;;;;;;8.35;4.38;;;;;10.40;99686.00;;;;5066335;28;20591;-76
2020/12/30 08:01:37;;;;;;;5.65;3.75;;;;;10.40;99699.00;;;;5061117;28;20838;-76
2020/12/30 08:04:08;;;;;;;6.43;4.22;;;;;10.40;99695.00;;;;5065052;28;20233;-77
2020/12/30 08:06:44;;;;;;;7.07;3.97;;;;;10.40;99706.00;;;;5056487;28;20249;-77
2020/12/30 08:09:12;;;;;;;5.35;3.50;;;;;10.50;99708.00;;;;5068890;28;20290;-78
2020/12/30 08:11:50;;;;;;;6.10;4.47;;;;;10.50;99710.00;;;;5065292;28;20284;-77
2020/12/30 08:14:18;;;;;;;6.55;4.35;;;;;10.60;99719.00;;;;5056794;28;20234;-78
2020/12/30 08:16:52;;;;;;;7.90;4.63;;;;;10.50;99716.00;;;;5062924;28;20260;-78
2020/12/30 08:19:33;;;;;;;6.32;3.97;;;;;10.50;99728.00;;;;5063906;28;20256;-78
2020/12/30 08:22:09;;;;;;;7.32;4.80;;;;;10.60;99727.00;;;;5053951;28;20200;-78
2020/12/30 08:24:38;;;;;;;6.53;4.05;;;;;10.70;99728.00;;;;5066138;28;20236;-78
2020/12/30 08:27:06;;;;;;;7.03;4.57;;;;;10.70;99726.00;;;;5067664;28;20695;-78
2020/12/30 08:29:34;;;;;;;6.63;4.55;;;;;10.70;99727.00;;;;5066019;28;20199;-78
2020/12/30 08:32:15;;;;;;;6.50;4.38;;;;;10.70;99734.00;;;;5071990;28;20230;-78
2020/12/30 08:34:45;;;;;;;7.78;4.80;;;;;10.70;99731.00;;;;5063626;28;20230;-78
2020/12/30 08:37:16;;;;;;;6.00;4.10;;;;;10.70;99735.00;;;;5067343;28;20206;-78
2020/12/30 08:40:05;;;;;;;6.65;4.35;;;;;10.60;99746.00;;;;5062403;28;20196;-77
2020/12/30 08:43:27;;;;;;;8.27;4.55;;;;;10.60;99742.00;;;;5064403;28;20195;-77
2020/12/30 08:46:06;;;;;;;6.15;3.95;;;;;10.60;99748.00;;;;5057148;28;20279;-77
2020/12/30 08:48:40;;;;;;;5.50;4.18;;;;;10.60;99747.00;;;;5051197;28;20207;-77
2020/12/30 08:51:07;;;;;;;7.13;4.35;;;;;10.60;99760.00;;;;5059503;28;20194;-78
2020/12/30 08:53:35;;;;;;;7.32;4.78;;;;;10.60;99757.00;;;;5062962;28;20757;-78
2020/12/30 08:56:03;;;;;;;6.20;4.43;;;;;10.60;99765.00;;;;5062863;28;20196;-78
2020/12/30 08:58:31;;;;;;;6.95;4.25;;;;;10.60;99766.00;;;;5067381;28;20284;-78
2020/12/30 09:00:58;;;;;;;6.65;4.20;;;;;10.60;99762.00;;;;5063127;28;20222;-78
2020/12/30 09:03:26;;;;;;;6.05;4.00;;;;;10.50;99772.00;;;;5058434;28;20282;-78
2020/12/30 09:05:55;;;;;;;6.80;4.63;;;;;10.50;99769.00;;;;5052777;28;20199;-78
2020/12/30 09:08:24;;;;;;;5.45;3.72;;;;;10.50;99768.00;;;;5067744;28;20207;-78
2020/12/30 09:10:51;;;;;;;6.03;3.75;;;;;10.50;99771.00;;;;5053333;28;20786;-78
2020/12/30 09:13:20;;;;;;;6.25;3.38;;;;;10.50;99769.00;;;;5066249;28;20712;-78
2020/12/30 09:15:54;;;;;;;8.10;3.90;;;;;10.50;99769.00;;;;5053760;28;20203;-78
2020/12/30 09:18:22;;;;;;;6.40;4.10;;;;;10.50;99770.00;;;;5067481;28;20755;-78
2020/12/30 09:20:49;;;;;;;8.45;3.92;;;;;10.50;99780.00;;;;5067550;28;20202;-78
2020/12/30 09:23:16;;;;;;;6.80;3.90;;;;;10.50;99781.00;;;;5048008;28;20192;-78
2020/12/30 09:25:43;;;;;;;5.57;3.55;;;;;10.60;99781.00;;;;5059841;28;20222;-78
2020/12/30 09:28:18;;;;;;;6.05;4.00;;;;;10.50;99784.00;;;;5053281;28;20195;-78
2020/12/30 09:30:45;;;;;;;6.38;3.85;;;;;10.60;99783.00;;;;5062994;28;20563;-78
2020/12/30 09:33:13;;;;;;;6.10;4.43;;;;;10.60;99791.00;;;;5067521;28;20276;-78
2020/12/30 09:35:40;;;;;;;6.03;3.92;;;;;10.60;99797.00;;;;5057289;28;21686;-77
2020/12/30 09:38:07;;;;;;;6.28;4.15;;;;;10.60;99795.00;;;;5061819;28;20563;-78
2020/12/30 09:40:41;;;;;;;7.70;4.40;;;;;10.60;99798.00;;;;5049854;28;20203;-78
2020/12/30 09:43:10;;;;;;;5.60;4.00;;;;;10.70;99799.00;;;;5062546;28;20707;-78
2020/12/30 09:45:38;;;;;;;6.35;3.83;;;;;10.80;99803.00;;;;5053476;28;20191;-78
2020/12/30 09:48:13;;;;;;;7.30;4.43;;;;;10.80;99806.00;;;;5066438;28;20210;-78
2020/12/30 09:50:40;;;;;;;6.28;3.88;;;;;10.90;99802.00;;;;5053486;28;20209;-78
2020/12/30 09:53:08;;;;;;;6.25;3.53;;;;;11.00;99820.00;;;;5057256;28;20204;-78
2020/12/30 09:55:34;;;;;;;6.85;3.83;;;;;11.00;99812.00;;;;5060711;28;20294;-78
2020/12/30 09:58:01;;;;;;;5.68;3.90;;;;;11.10;99826.00;;;;5055677;28;20194;-78
2020/12/30 10:00:29;;;;;;;6.05;4.30;;;;;11.20;99822.00;;;;5067073;28;20226;-78
2020/12/30 10:02:56;;;;;;;7.43;4.60;;;;;11.30;99819.00;;;;5053902;28;20198;-78
2020/12/30 10:05:23;;;;;;;7.35;4.55;;;;;11.40;99826.00;;;;5066779;28;20660;-78
2020/12/30 10:07:50;;;;;;;4.63;3.53;;;;;11.40;99819.00;;;;5066370;28;20563;-78
2020/12/30 10:10:17;;;;;;;7.22;4.30;;;;;11.40;99822.00;;;;5067199;28;20233;-78
2020/12/30 10:12:43;;;;;;;6.13;4.35;;;;;11.40;99826.00;;;;5064091;28;20199;-78
2020/12/30 10:15:11;;;;;;;6.03;4.13;;;;;11.40;99827.00;;;;5060341;28;20692;-78
2020/12/30 10:17:39;;;;;;;6.38;4.28;;;;;11.50;99826.00;;;;5056109;28;20693;-78
2020/12/30 10:20:09;;;;;;;6.25;4.15;;;;;11.50;99823.00;;;;5062509;28;20237;-78
2020/12/30 10:22:37;;;;;;;5.55;3.90;;;;;11.50;99825.00;;;;5064272;28;20203;-78
2020/12/30 10:25:05;;;;;;;10.18;5.10;;;;;11.50;99826.00;;;;5058108;28;20207;-78
2020/12/30 10:27:31;;;;;;;8.02;3.95;;;;;11.50;99826.00;;;;5058033;28;20196;-78
2020/12/30 10:29:58;;;;;;;6.60;4.60;;;;;11.50;99826.00;;;;5069398;28;20203;-78
2020/12/30 10:32:25;;;;;;;7.90;4.78;;;;;11.50;99825.00;;;;5059372;28;20199;-78
2020/12/30 10:34:51;;;;;;;6.88;4.85;;;;;11.60;99826.00;;;;5064400;28;20631;-78
2020/12/30 10:37:19;;;;;;;7.25;4.22;;;;;11.50;99830.00;;;;5060333;28;20252;-78
2020/12/30 10:39:48;;;;;;;5.95;3.70;;;;;11.60;99828.00;;;;5069837;28;20198;-78
2020/12/30 10:42:15;;;;;;;5.88;4.30;;;;;11.60;99830.00;;;;5055271;28;20640;-78
2020/12/30 10:44:43;;;;;;;5.15;3.97;;;;;11.60;99827.00;;;;5070189;28;20748;-78
2020/12/30 10:47:10;;;;;;;6.15;4.32;;;;;11.60;99826.00;;;;5066980;28;20199;-78
2020/12/30 10:49:37;;;;;;;6.97;3.97;;;;;11.70;99825.00;;;;5059177;28;20214;-78
2020/12/30 10:52:03;;;;;;;6.50;3.55;;;;;11.70;99819.00;;;;5056504;28;20204;-78
2020/12/30 10:54:31;;;;;;;5.88;3.65;;;;;11.70;99831.00;;;;5062595;28;20297;-78
2020/12/30 10:56:58;;;;;;;5.70;3.90;;;;;11.70;99825.00;;;;5053171;28;20199;-78
2020/12/30 10:59:24;;;;;;;6.05;3.60;;;;;11.70;99826.00;;;;5069776;28;20246;-78
2020/12/30 11:01:52;;;;;;;4.72;3.55;;;;;11.80;99826.00;;;;5057865;28;20258;-78
2020/12/30 11:04:19;;;;;;;4.78;3.17;;;;;11.80;99827.00;;;;5069129;28;20562;-78
2020/12/30 11:06:46;;;;;;;4.82;3.72;;;;;11.80;99826.00;;;;5070192;28;20211;-78
2020/12/30 11:09:13;;;;;;;5.50;3.13;;;;;11.90;99825.00;;;;5055665;28;20237;-78
2020/12/30 11:11:40;;;;;;;4.00;2.97;;;;;11.90;99828.00;;;;5061822;28;20228;-78
2020/12/30 11:14:08;;;;;;;5.18;3.10;;;;;12.00;99822.00;;;;5054570;28;20230;-78
2020/12/30 11:16:35;;;;;;;4.00;2.25;;;;;12.00;99828.00;;;;5069680;28;20225;-78
2020/12/30 11:19:01;;;;;;;3.67;2.88;;;;;12.10;99826.00;;;;5070108;28;20256;-78
2020/12/30 11:21:28;;;;;;;4.82;2.75;;;;;12.20;99824.00;;;;5056143;28;20191;-78
2020/12/30 11:23:55;;;;;;;4.60;3.22;;;;;12.30;99837.00;;;;5057940;28;20285;-78
2020/12/30 11:26:22;;;;;;;5.63;2.95;;;;;12.30;99833.00;;;;5066612;28;20646;-78
2020/12/30 11:28:50;;;;;;;2.67;2.35;;;;;12.40;99839.00;;;;5059817;28;20214;-78
2020/12/30 11:31:16;;;;;;;2.92;2.17;;;;;12.40;99839.00;;;;5069669;28;20199;-77
2020/12/30 11:33:43;;;;;;;2.22;1.70;;;;;12.40;99840.00;;;;5060622;28;20284;-78
2020/12/30 11:36:10;;;;;;;3.08;2.22;;;;;12.40;99843.00;;;;5063460;28;20206;-78
2020/12/30 11:38:37;;;;;;;2.65;1.90;;;;;12.40;99837.00;;;;5055398;28;20210;-77
2020/12/30 11:41:03;;;;;;;3.92;1.75;;;;;12.40;99846.00;;;;5056371;28;20264;-78
2020/12/30 11:43:30;;;;;;;2.88;1.70;;;;;12.40;99846.00;;;;5068427;28;20207;-78
2020/12/30 11:45:58;;;;;;;2.42;1.52;;;;;12.40;99839.00;;;;5062440;28;20192;-78
2020/12/30 11:48:25;;;;;;;3.15;1.75;;;;;12.50;99847.00;;;;5055704;28;20576;-78
2020/12/30 11:50:52;;;;;;;3.47;1.70;;;;;12.50;99846.00;;;;5063449;28;20606;-77
2020/12/30 11:53:18;;;;;;;3.50;1.50;;;;;12.60;99850.00;;;;5060038;28;20210;-77
2020/12/30 11:55:45;;;;;;;1.70;1.17;;;;;12.60;99844.00;;;;5054516;28;20203;-77
2020/12/30 11:58:12;;;;;;;1.90;1.30;;;;;12.60;99843.00;;;;5059606;28;20192;-77
2020/12/30 12:00:38;;;;;;;1.65;0.90;;;;;12.70;99841.00;;;;5062397;28;20206;-78
2020/12/30 12:03:06;;;;;;;2.03;1.10;;;;;12.70;99843.00;;;;5056964;28;20514;-78
2020/12/30 12:05:33;;;;;;;1.58;0.90;;;;;12.80;99848.00;;;;5054891;28;21039;-78
2020/12/30 12:07:59;;;;;;;1.98;1.00;;;;;12.80;99847.00;;;;5061901;28;20203;-78
2020/12/30 12:10:26;;;;;;;1.70;0.70;;;;;12.80;99847.00;;;;5061165;28;20211;-78
2020/12/30 12:12:53;;;;;;;0.50;0.38;;;;;12.80;99858.00;;;;5054150;28;20252;-78
2020/12/30 12:15:21;;;;;;;1.52;0.60;;;;;12.80;99856.00;;;;5068436;28;20696;-78
2020/12/30 12:17:48;;;;;;;1.05;0.40;;;;;12.90;99869.00;;;;5054348;28;20585;-78
2020/12/30 12:20:16;;;;;;;1.00;0.30;;;;;12.80;99861.00;;;;5062146;28;20625;-78
2020/12/30 12:22:42;;;;;;;0.90;0.20;;;;;12.80;99866.00;;;;5066980;28;20198;-77
2020/12/30 12:25:09;;;;;;;0.98;0.40;;;;;12.80;99868.00;;;;5056257;28;20203;-77
2020/12/30 12:27:36;;;;;;;1.40;0.50;;;;;12.80;99869.00;;;;5054667;28;20203;-78
2020/12/30 12:30:03;;;;;;;1.05;0.30;;;;;12.80;99867.00;;;;5054158;28;20219;-78
2020/12/30 12:32:30;;;;;;;1.73;0.10;;;;;12.80;99860.00;;;;5056562;28;20562;-78